createdAt,value
2022-12-15T00:02:19.613Z,94884.34
2022-12-15T00:05:05.233Z,94881.28
2022-12-15T00:07:50.623Z,94875.88
2022-12-15T00:10:35.956Z,94875.69
2022-12-15T00:13:21.085Z,94873.69
2022-12-15T00:16:07.555Z,94880.84
2022-12-15T00:18:53.992Z,94894.69
2022-12-15T00:21:39.242Z,94905.78
2022-12-15T00:24:25.184Z,94900.47
2022-12-15T00:27:10.349Z,94909.00
2022-12-15T00:29:55.821Z,94915.03
2022-12-15T00:32:41.347Z,94915.34
2022-12-15T00:35:27.762Z,94923.81
2022-12-15T00:38:13.091Z,94919.63
2022-12-15T00:40:41.003Z,94938.59
2022-12-15T00:43:11.904Z,94933.53
2022-12-15T00:45:57.743Z,94925.97
2022-12-15T00:48:25.248Z,94929.69
2022-12-15T00:50:53.142Z,94933.56
2022-12-15T00:53:38.561Z,94940.56
2022-12-15T00:56:23.853Z,94939.22
2022-12-15T00:59:09.276Z,94940.31
2022-12-15T01:01:54.721Z,94941.88
2022-12-15T01:04:39.885Z,94940.06
2022-12-15T01:07:26.536Z,94949.81
2022-12-15T01:10:11.771Z,94941.91
2022-12-15T01:12:57.049Z,94934.19
2022-12-15T01:15:42.591Z,94946.28
2022-12-15T01:18:27.763Z,94946.53
2022-12-15T01:20:59.271Z,94957.16
2022-12-15T01:23:28.735Z,94957.50
2022-12-15T01:25:56.788Z,94981.63
2022-12-15T01:28:25.397Z,94982.22
2022-12-15T01:30:53.464Z,94990.84
2022-12-15T01:33:22.559Z,94986.09
2022-12-15T01:35:57.062Z,94993.53
2022-12-15T01:38:24.670Z,94983.22
2022-12-15T01:40:55.628Z,94989.75
2022-12-15T01:43:25.433Z,94998.06
2022-12-15T01:46:05.395Z,94997.78
2022-12-15T01:48:39.850Z,94991.44
2022-12-15T01:51:16.127Z,95001.16
2022-12-15T01:53:50.194Z,94990.22
2022-12-15T01:56:20.623Z,94995.53
2022-12-15T01:58:50.566Z,94997.22
2022-12-15T02:01:18.311Z,95009.97
2022-12-15T02:03:48.143Z,95015.88
2022-12-15T02:06:16.532Z,95025.91
2022-12-15T02:08:47.512Z,95014.09
2022-12-15T02:11:48.277Z,95018.34
2022-12-15T02:14:25.469Z,95020.97
2022-12-15T02:17:03.018Z,95022.28
2022-12-15T02:19:59.981Z,95025.16
2022-12-15T02:22:43.627Z,95028.22
2022-12-15T02:25:34.745Z,95023.06
2022-12-15T02:28:07.406Z,95025.19
2022-12-15T02:31:11.381Z,95033.59
2022-12-15T02:33:44.823Z,95032.44
2022-12-15T02:36:19.266Z,95033.84
2022-12-15T02:38:46.814Z,95041.03
2022-12-15T02:41:34.917Z,95022.38
2022-12-15T02:44:04.911Z,95019.06
2022-12-15T02:46:43.815Z,95027.81
2022-12-15T02:49:20.427Z,95041.63
2022-12-15T02:52:01.924Z,95050.28
2022-12-15T02:54:47.158Z,95063.19
2022-12-15T02:57:23.054Z,95054.63
2022-12-15T02:59:56.886Z,95071.00
2022-12-15T03:02:29.536Z,95061.19
2022-12-15T03:04:57.712Z,95061.06
2022-12-15T03:07:27.731Z,95075.31
2022-12-15T03:09:57.071Z,95074.84
2022-12-15T03:12:24.645Z,95076.72
2022-12-15T03:14:52.506Z,95074.34
2022-12-15T03:17:20.069Z,95073.16
2022-12-15T03:19:49.878Z,95076.41
2022-12-15T03:22:17.692Z,95072.03
2022-12-15T03:24:45.294Z,95077.69
2022-12-15T03:27:12.950Z,95070.34
2022-12-15T03:29:40.471Z,95066.34
2022-12-15T03:32:08.563Z,95073.19
2022-12-15T03:34:36.155Z,95063.50
2022-12-15T03:37:05.123Z,95061.28
2022-12-15T03:39:32.671Z,95060.88
2022-12-15T03:42:00.199Z,95059.22
2022-12-15T03:44:27.723Z,95059.38
2022-12-15T03:47:01.267Z,95062.19
2022-12-15T03:49:30.616Z,95051.91
2022-12-15T03:51:58.146Z,95052.00
2022-12-15T03:54:27.005Z,95066.88
2022-12-15T03:56:54.527Z,95061.13
2022-12-15T03:59:22.031Z,95062.56
2022-12-15T04:01:50.023Z,95075.59
2022-12-15T04:04:17.643Z,95093.88
2022-12-15T04:06:45.143Z,95086.81
2022-12-15T04:09:12.664Z,95081.59
2022-12-15T04:11:41.555Z,95079.59
2022-12-15T04:14:10.102Z,95083.75
2022-12-15T04:16:37.688Z,95104.41
2022-12-15T04:19:23.373Z,95095.88
2022-12-15T04:21:50.891Z,95107.81
2022-12-15T04:24:35.927Z,95096.75
2022-12-15T04:27:22.648Z,95100.25
2022-12-15T04:30:07.910Z,95105.63
2022-12-15T04:32:53.295Z,95103.75
2022-12-15T04:35:38.586Z,95098.28
2022-12-15T04:38:24.018Z,95105.19
2022-12-15T04:41:09.247Z,95094.19
2022-12-15T04:43:55.955Z,95098.06
2022-12-15T04:46:41.440Z,95110.81
2022-12-15T04:49:26.331Z,95097.88
2022-12-15T04:52:11.528Z,95106.31
2022-12-15T04:54:56.931Z,95130.16
2022-12-15T04:57:42.293Z,95136.19
2022-12-15T05:00:30.525Z,95153.25
2022-12-15T05:03:30.065Z,95153.28
2022-12-15T05:06:16.747Z,95157.38
2022-12-15T05:09:02.140Z,95164.09
2022-12-15T05:11:47.417Z,95151.16
2022-12-15T05:14:32.672Z,95156.19
2022-12-15T05:17:19.328Z,95154.72
2022-12-15T05:20:04.662Z,95161.13
2022-12-15T05:22:50.113Z,95154.00
2022-12-15T05:25:35.342Z,95147.91
2022-12-15T05:28:23.720Z,95169.19
2022-12-15T05:31:09.088Z,95180.31
2022-12-15T05:33:38.071Z,95190.00
2022-12-15T05:36:06.188Z,95185.50
2022-12-15T05:38:33.714Z,95177.22
2022-12-15T05:41:01.645Z,95178.88
2022-12-15T05:43:29.880Z,95171.53
2022-12-15T05:46:03.962Z,95172.03
2022-12-15T05:48:31.622Z,95164.22
2022-12-15T05:51:04.352Z,95173.50
2022-12-15T05:53:32.381Z,95168.00
2022-12-15T05:56:02.785Z,95179.03
2022-12-15T05:58:30.411Z,95180.47
2022-12-15T06:01:04.791Z,95189.50
2022-12-15T06:03:32.842Z,95173.84
2022-12-15T06:06:02.906Z,95178.50
2022-12-15T06:08:31.476Z,95193.63
2022-12-15T06:10:58.978Z,95204.66
2022-12-15T06:13:27.240Z,95192.69
2022-12-15T06:15:59.197Z,95197.31
2022-12-15T06:18:30.007Z,95192.44
2022-12-15T06:21:03.212Z,95196.09
2022-12-15T06:23:32.969Z,95211.59
2022-12-15T06:26:02.170Z,95212.22
2022-12-15T06:28:30.331Z,95206.25
2022-12-15T06:31:03.109Z,95219.41
2022-12-15T06:33:31.395Z,95230.56
2022-12-15T06:36:05.112Z,95229.22
2022-12-15T06:38:33.860Z,95231.78
2022-12-15T06:41:02.642Z,95231.38
2022-12-15T06:43:31.534Z,95245.13
2022-12-15T06:45:59.644Z,95232.88
2022-12-15T06:48:27.696Z,95246.75
2022-12-15T06:50:55.829Z,95254.63
2022-12-15T06:53:25.645Z,95264.97
2022-12-15T06:55:53.333Z,95253.78
2022-12-15T06:58:20.940Z,95246.94
2022-12-15T07:00:48.484Z,95247.50
2022-12-15T07:03:18.992Z,95244.06
2022-12-15T07:05:47.390Z,95236.44
2022-12-15T07:08:16.804Z,95239.31
2022-12-15T07:10:45.893Z,95239.34
2022-12-15T07:13:14.048Z,95240.69
2022-12-15T07:15:41.717Z,95231.06
2022-12-15T07:18:11.212Z,95240.81
2022-12-15T07:20:39.203Z,95231.56
2022-12-15T07:23:09.537Z,95240.50
2022-12-15T07:25:37.164Z,95250.22
2022-12-15T07:28:06.979Z,95243.34
2022-12-15T07:30:38.634Z,95237.19
2022-12-15T07:33:06.915Z,95255.66
2022-12-15T07:35:34.506Z,95259.56
2022-12-15T07:38:02.047Z,95249.88
2022-12-15T07:40:29.574Z,95254.50
2022-12-15T07:42:57.318Z,95251.78
2022-12-15T07:45:26.199Z,95252.50
2022-12-15T07:47:53.788Z,95256.22
2022-12-15T07:50:21.335Z,95271.75
2022-12-15T07:52:48.872Z,95261.69
2022-12-15T07:55:17.409Z,95265.63
2022-12-15T07:57:44.929Z,95271.31
2022-12-15T08:00:14.684Z,95280.78
2022-12-15T08:02:43.808Z,95281.06
2022-12-15T08:05:11.498Z,95273.94
2022-12-15T08:07:39.030Z,95269.28
2022-12-15T08:10:07.554Z,95282.06
2022-12-15T08:12:35.081Z,95287.28
2022-12-15T08:15:02.605Z,95286.31
2022-12-15T08:17:30.175Z,95285.28
2022-12-15T08:20:01.423Z,95284.06
2022-12-15T08:22:31.010Z,95288.56
2022-12-15T08:24:58.563Z,95305.44
2022-12-15T08:27:27.227Z,95299.88
2022-12-15T08:29:55.430Z,95307.47
2022-12-15T08:32:23.105Z,95305.91
2022-12-15T08:34:50.789Z,95311.88
2022-12-15T08:37:19.685Z,95297.63
2022-12-15T08:39:47.949Z,95304.53
2022-12-15T08:42:15.468Z,95295.94
2022-12-15T08:44:42.983Z,95294.19
2022-12-15T08:47:10.529Z,95311.59
2022-12-15T08:49:38.245Z,95312.22
2022-12-15T08:52:05.796Z,95314.56
2022-12-15T08:54:34.896Z,95340.75
2022-12-15T08:57:02.471Z,95341.88
2022-12-15T08:59:30.005Z,95331.56
2022-12-15T09:01:57.699Z,95326.94
2022-12-15T09:04:25.388Z,95330.66
2022-12-15T09:06:52.978Z,95349.63
2022-12-15T09:09:21.289Z,95343.94
2022-12-15T09:11:50.676Z,95344.81
2022-12-15T09:14:24.140Z,95341.75
2022-12-15T09:16:56.489Z,95343.16
2022-12-15T09:19:25.177Z,95348.66
2022-12-15T09:21:52.756Z,95345.53
2022-12-15T09:24:32.065Z,95344.13
2022-12-15T09:27:03.937Z,95333.88
2022-12-15T09:29:31.459Z,95329.34
2022-12-15T09:31:59.754Z,95335.31
2022-12-15T09:34:27.295Z,95364.78
2022-12-15T09:36:54.789Z,95358.41
2022-12-15T09:39:22.310Z,95325.03
2022-12-15T09:41:54.914Z,95329.53
2022-12-15T09:44:25.913Z,95334.66
2022-12-15T09:47:15.169Z,95328.78
2022-12-15T09:49:54.045Z,95309.53
2022-12-15T09:52:25.384Z,95305.13
2022-12-15T09:54:53.304Z,95313.31
2022-12-15T09:57:27.883Z,95307.19
2022-12-15T10:00:06.816Z,95294.06
2022-12-15T10:03:00.060Z,95285.00
2022-12-15T10:08:31.869Z,95278.28
2022-12-15T10:11:01.448Z,95279.19
2022-12-15T10:13:38.780Z,95283.78
2022-12-15T10:16:18.312Z,95287.72
2022-12-15T10:18:59.382Z,95285.03
2022-12-15T10:21:31.922Z,95289.97
2022-12-15T10:24:09.025Z,95294.03
2022-12-15T10:26:36.578Z,95296.06
2022-12-15T10:29:23.059Z,95292.91
2022-12-15T10:31:58.083Z,95305.72
2022-12-15T10:34:28.582Z,95298.91
2022-12-15T10:37:00.112Z,95295.19
2022-12-15T10:39:39.137Z,95289.69
2022-12-15T10:42:13.554Z,95281.94
2022-12-15T10:44:43.123Z,95280.09
2022-12-15T10:47:17.847Z,95275.94
2022-12-15T10:49:45.464Z,95264.25
2022-12-15T10:52:24.366Z,95264.44
2022-12-15T10:54:54.096Z,95257.13
2022-12-15T10:57:27.645Z,95244.91
2022-12-15T10:59:56.435Z,95245.81
2022-12-15T11:02:36.380Z,95238.38
2022-12-15T11:05:07.091Z,95233.16
2022-12-15T11:07:38.892Z,95235.09
2022-12-15T11:10:20.174Z,95234.50
2022-12-15T11:12:59.497Z,95247.25
2022-12-15T11:15:47.219Z,95243.06
2022-12-15T11:18:39.673Z,95238.44
2022-12-15T11:21:13.093Z,95238.72
2022-12-15T11:23:52.704Z,95251.06
2022-12-15T11:26:31.662Z,95246.88
2022-12-15T11:29:01.713Z,95249.63
2022-12-15T11:31:35.895Z,95250.72
2022-12-15T11:34:05.400Z,95251.28
2022-12-15T11:36:58.347Z,95254.03
2022-12-15T11:39:41.303Z,95254.59
2022-12-15T11:42:16.555Z,95250.38
2022-12-15T11:44:58.068Z,95249.06
2022-12-15T11:47:39.525Z,95260.56
2022-12-15T11:50:24.570Z,95252.91
2022-12-15T11:53:07.985Z,95246.84
2022-12-15T11:55:46.639Z,95232.72
2022-12-15T11:58:43.657Z,95234.72
2022-12-15T12:01:24.359Z,95240.66
2022-12-15T12:04:02.145Z,95228.66
2022-12-15T12:06:39.898Z,95217.56
2022-12-15T12:09:25.991Z,95207.66
2022-12-15T12:11:59.805Z,95197.16
2022-12-15T12:14:38.976Z,95208.75
2022-12-15T12:17:11.095Z,95207.94
2022-12-15T12:19:43.520Z,95205.72
2022-12-15T12:22:22.825Z,95206.91
2022-12-15T12:24:56.444Z,95218.44
2022-12-15T12:27:29.772Z,95215.13
2022-12-15T12:30:02.923Z,95230.19
2022-12-15T12:32:40.105Z,95231.16
2022-12-15T12:35:32.364Z,95224.22
2022-12-15T12:38:05.305Z,95219.50
2022-12-15T12:40:47.021Z,95204.66
2022-12-15T12:43:27.890Z,95205.97
2022-12-15T12:45:59.831Z,95206.28
2022-12-15T12:48:32.979Z,95207.22
2022-12-15T12:51:17.009Z,95215.09
2022-12-15T12:53:46.054Z,95213.50
2022-12-15T12:56:39.717Z,95219.88
2022-12-15T12:59:36.517Z,95209.34
2022-12-15T13:02:51.026Z,95206.88
2022-12-15T13:05:35.513Z,95204.19
2022-12-15T13:08:32.954Z,95199.22
2022-12-15T13:11:40.475Z,95183.13
2022-12-15T13:14:22.575Z,95165.22
2022-12-15T13:17:24.846Z,95161.66
2022-12-15T13:20:23.484Z,95157.19
2022-12-15T13:22:52.079Z,95159.38
2022-12-15T13:25:37.360Z,95174.06
2022-12-15T13:28:20.252Z,95160.16
2022-12-15T13:31:42.796Z,95155.50
2022-12-15T13:34:24.138Z,95169.81
2022-12-15T13:37:02.716Z,95161.19
2022-12-15T13:39:56.340Z,95161.72
2022-12-15T13:42:40.737Z,95154.41
2022-12-15T13:45:45.455Z,95155.78
2022-12-15T13:48:27.007Z,95152.19
2022-12-15T13:51:04.213Z,95160.16
2022-12-15T13:53:40.365Z,95159.63
2022-12-15T13:56:24.330Z,95159.94
2022-12-15T13:58:58.300Z,95151.78
2022-12-15T14:01:32.345Z,95153.00
2022-12-15T14:04:07.010Z,95150.06
2022-12-15T14:06:47.040Z,95152.94
2022-12-15T14:09:23.264Z,95147.09
2022-12-15T14:11:53.595Z,95139.47
2022-12-15T14:14:25.501Z,95138.34
2022-12-15T14:16:55.991Z,95142.44
2022-12-15T14:19:23.558Z,95142.56
2022-12-15T14:21:54.966Z,95154.63
2022-12-15T14:24:38.443Z,95157.00
2022-12-15T14:27:06.830Z,95159.88
2022-12-15T14:29:34.594Z,95154.06
2022-12-15T14:32:02.605Z,95147.91
2022-12-15T14:34:33.835Z,95143.03
2022-12-15T14:37:07.580Z,95146.22
2022-12-15T14:39:38.702Z,95148.28
2022-12-15T14:42:08.437Z,95132.88
2022-12-15T14:44:39.450Z,95139.13
2022-12-15T14:47:17.264Z,95131.63
2022-12-15T14:49:48.065Z,95134.09
2022-12-15T14:52:28.290Z,95126.19
2022-12-15T14:54:57.795Z,95126.53
2022-12-15T14:57:27.615Z,95123.41
2022-12-15T14:59:55.795Z,95123.47
2022-12-15T15:02:26.614Z,95119.72
2022-12-15T15:03:10.012Z,95275.00
2022-12-15T15:05:02.879Z,95119.50
2022-12-15T15:07:33.095Z,95115.69
2022-12-15T15:10:01.956Z,95110.53
2022-12-15T15:12:43.343Z,95110.72
2022-12-15T15:15:16.846Z,95117.41
2022-12-15T15:17:49.606Z,95121.09
2022-12-15T15:20:21.795Z,95128.75
2022-12-15T15:23:05.212Z,95126.38
2022-12-15T15:25:39.865Z,95124.25
2022-12-15T15:28:21.830Z,95123.91
2022-12-15T15:30:50.667Z,95118.81
2022-12-15T15:33:19.618Z,95119.19
2022-12-15T15:35:50.714Z,95124.22
2022-12-15T15:38:24.166Z,95142.13
2022-12-15T15:40:53.211Z,95144.09
2022-12-15T15:43:20.782Z,95140.31
2022-12-15T15:45:49.458Z,95149.09
2022-12-15T15:48:22.626Z,95152.16
2022-12-15T15:50:50.284Z,95142.22
2022-12-15T15:53:23.292Z,95142.47
2022-12-15T15:55:53.236Z,95140.19
2022-12-15T15:58:20.928Z,95145.88
2022-12-15T16:00:48.459Z,95140.94
2022-12-15T16:03:16.295Z,95126.84
2022-12-15T16:05:44.776Z,95133.72
2022-12-15T16:08:16.206Z,95135.88
2022-12-15T16:10:48.555Z,95141.03
2022-12-15T16:13:22.413Z,95129.00
2022-12-15T16:15:54.136Z,95126.25
2022-12-15T16:18:22.212Z,95126.09
2022-12-15T16:20:52.714Z,95128.09
2022-12-15T16:23:23.582Z,95131.78
2022-12-15T16:25:54.740Z,95132.78
2022-12-15T16:28:24.151Z,95129.91
2022-12-15T16:30:52.314Z,95123.66
2022-12-15T16:33:20.395Z,95115.19
2022-12-15T16:35:50.292Z,95118.78
2022-12-15T16:38:24.107Z,95116.44
2022-12-15T16:40:55.561Z,95108.28
2022-12-15T16:43:24.558Z,95113.09
2022-12-15T16:45:54.034Z,95110.09
2022-12-15T16:48:22.345Z,95094.34
2022-12-15T16:50:52.780Z,95091.63
2022-12-15T16:53:25.587Z,95094.41
2022-12-15T16:55:56.084Z,95077.03
2022-12-15T16:58:25.050Z,95082.03
2022-12-15T17:00:53.732Z,95086.19
2022-12-15T17:03:23.294Z,95085.25
2022-12-15T17:05:53.075Z,95088.09
2022-12-15T17:08:23.866Z,95086.50
2022-12-15T17:10:52.252Z,95092.28
2022-12-15T17:13:36.627Z,95083.06
2022-12-15T17:16:07.712Z,95086.56
2022-12-15T17:18:35.667Z,95094.00
2022-12-15T17:21:05.065Z,95081.22
2022-12-15T17:23:34.627Z,95085.72
2022-12-15T17:26:22.673Z,95095.41
2022-12-15T17:28:52.221Z,95110.06
2022-12-15T17:31:21.485Z,95108.41
2022-12-15T17:33:49.409Z,95111.97
2022-12-15T17:36:21.025Z,95107.19
2022-12-15T17:38:52.530Z,95098.13
2022-12-15T17:41:50.178Z,95096.06
2022-12-15T17:44:36.356Z,95107.50
2022-12-15T17:47:06.460Z,95096.44
2022-12-15T17:49:37.240Z,95108.66
2022-12-15T17:52:09.065Z,95102.13
2022-12-15T17:54:36.724Z,95095.66
2022-12-15T17:57:04.463Z,95088.72
2022-12-15T17:59:33.359Z,95080.66
2022-12-15T18:02:01.080Z,95071.75
2022-12-15T18:04:28.704Z,95071.78
2022-12-15T18:07:01.512Z,95061.84
2022-12-15T18:09:30.455Z,95054.53
2022-12-15T18:11:58.095Z,95059.47
2022-12-15T18:14:25.632Z,95061.84
2022-12-15T18:16:54.492Z,95047.78
2022-12-15T18:19:23.202Z,95044.59
2022-12-15T18:21:50.735Z,95036.34
2022-12-15T18:24:21.399Z,95024.13
2022-12-15T18:26:48.955Z,95039.13
2022-12-15T18:29:18.476Z,95034.41
2022-12-15T18:31:47.050Z,95033.59
2022-12-15T18:34:18.378Z,95025.44
2022-12-15T18:36:46.249Z,95021.88
2022-12-15T18:39:19.800Z,95029.47
2022-12-15T18:41:48.038Z,95019.63
2022-12-15T18:44:22.579Z,95022.59
2022-12-15T18:46:50.119Z,95025.28
2022-12-15T18:49:19.331Z,95031.72
2022-12-15T18:51:47.904Z,95016.19
2022-12-15T18:54:17.786Z,95023.28
2022-12-15T18:56:45.306Z,95021.19
2022-12-15T18:59:15.545Z,95017.72
2022-12-15T19:01:43.655Z,95012.38
2022-12-15T19:04:11.422Z,95011.03
2022-12-15T19:06:40.428Z,95018.78
2022-12-15T19:09:14.431Z,95025.16
2022-12-15T19:12:02.214Z,95025.16
2022-12-15T19:14:42.612Z,95020.34
2022-12-15T19:17:29.717Z,95019.03
2022-12-15T19:20:15.066Z,95009.78
2022-12-15T19:22:44.249Z,95018.50
2022-12-15T19:25:18.234Z,95019.00
2022-12-15T19:27:48.708Z,95013.38
2022-12-15T19:30:18.256Z,94998.03
2022-12-15T19:32:46.360Z,95000.88
2022-12-15T19:35:14.146Z,94999.88
2022-12-15T19:37:45.287Z,95000.72
2022-12-15T19:40:20.299Z,94984.41
2022-12-15T19:42:48.689Z,94982.16
2022-12-15T19:45:18.270Z,94976.06
2022-12-15T19:47:45.874Z,94968.25
2022-12-15T19:50:17.733Z,94969.50
2022-12-15T19:52:49.565Z,94961.50
2022-12-15T19:55:18.761Z,94959.91
2022-12-15T19:57:46.453Z,94964.91
2022-12-15T20:00:21.619Z,94950.97
2022-12-15T20:02:49.307Z,94961.38
2022-12-15T20:05:17.023Z,94960.31
2022-12-15T20:07:47.124Z,94946.97
2022-12-15T20:10:24.393Z,94947.59
2022-12-15T20:12:55.368Z,94950.53
2022-12-15T20:15:24.942Z,94945.47
2022-12-15T20:17:56.349Z,94932.47
2022-12-15T20:20:26.010Z,94940.50
2022-12-15T20:22:57.364Z,94926.56
2022-12-15T20:25:31.031Z,94938.44
2022-12-15T20:28:00.516Z,94946.31
2022-12-15T20:30:32.298Z,94937.28
2022-12-15T20:33:00.221Z,94916.00
2022-12-15T20:35:28.487Z,94920.59
2022-12-15T20:37:57.348Z,94926.75
2022-12-15T20:40:27.022Z,94931.81
2022-12-15T20:42:55.485Z,94917.13
2022-12-15T20:45:28.061Z,94926.22
2022-12-15T20:47:56.955Z,94928.63
2022-12-15T20:50:28.720Z,94921.13
2022-12-15T20:52:57.584Z,94919.00
2022-12-15T20:55:25.439Z,94918.53
2022-12-15T20:57:53.523Z,94908.59
2022-12-15T21:00:21.945Z,94908.94
2022-12-15T21:02:51.828Z,94901.03
2022-12-15T21:05:21.853Z,94909.72
2022-12-15T21:07:50.497Z,94909.28
2022-12-15T21:10:21.202Z,94901.53
2022-12-15T21:12:50.499Z,94901.03
2022-12-15T21:15:20.869Z,94901.88
2022-12-15T21:17:57.276Z,94895.38
2022-12-15T21:20:25.719Z,94890.44
2022-12-15T21:22:53.277Z,94889.97
2022-12-15T21:25:27.377Z,94895.38
2022-12-15T21:27:54.911Z,94888.22
2022-12-15T21:30:25.655Z,94894.16
2022-12-15T21:32:53.375Z,94897.47
2022-12-15T21:35:20.891Z,94894.59
2022-12-15T21:37:51.482Z,94886.00
2022-12-15T21:40:21.088Z,94883.59
2022-12-15T21:42:50.959Z,94882.44
2022-12-15T21:45:21.013Z,94871.59
2022-12-15T21:48:06.252Z,94870.09
2022-12-15T21:50:34.684Z,94867.38
2022-12-15T21:53:03.613Z,94878.50
2022-12-15T21:55:31.942Z,94873.75
2022-12-15T21:58:00.835Z,94873.94
2022-12-15T22:00:28.689Z,94873.25
2022-12-15T22:02:56.321Z,94869.25
2022-12-15T22:05:29.195Z,94856.44
2022-12-15T22:07:58.564Z,94851.41
2022-12-15T22:10:26.330Z,94863.38
2022-12-15T22:12:59.542Z,94859.16
2022-12-15T22:15:30.331Z,94852.84
2022-12-15T22:17:57.893Z,94853.34
2022-12-15T22:20:26.174Z,94856.25
2022-12-15T22:22:53.727Z,94859.94
2022-12-15T22:25:24.733Z,94871.16
2022-12-15T22:27:52.727Z,94851.97
2022-12-15T22:30:25.237Z,94849.75
2022-12-15T22:32:54.382Z,94852.06
2022-12-15T22:35:24.028Z,94851.59
2022-12-15T22:37:53.630Z,94852.25
2022-12-15T22:40:22.235Z,94853.66
2022-12-15T22:42:52.535Z,94849.81
2022-12-15T22:45:23.922Z,94850.88
2022-12-15T22:47:55.074Z,94858.41
2022-12-15T22:50:25.827Z,94857.81
2022-12-15T22:52:55.016Z,94856.50
2022-12-15T22:55:24.267Z,94861.25
2022-12-15T22:57:59.009Z,94860.56
2022-12-15T23:00:26.755Z,94858.28
2022-12-15T23:05:28.491Z,94856.06
2022-12-15T23:07:56.053Z,94856.63
2022-12-15T23:10:41.489Z,94852.13
2022-12-15T23:13:09.015Z,94849.16
2022-12-15T23:15:54.610Z,94846.28
2022-12-15T23:18:23.704Z,94846.06
2022-12-15T23:20:51.553Z,94846.81
2022-12-15T23:23:19.528Z,94856.41
2022-12-15T23:25:47.375Z,94847.66
2022-12-15T23:28:15.183Z,94838.25
2022-12-15T23:30:42.698Z,94841.41
2022-12-15T23:33:10.229Z,94844.19
2022-12-15T23:35:41.739Z,94828.63
2022-12-15T23:38:09.287Z,94842.81
2022-12-15T23:40:36.928Z,94837.13
2022-12-15T23:43:04.552Z,94844.38
2022-12-15T23:45:32.127Z,94847.59
2022-12-15T23:47:59.646Z,94842.53
2022-12-15T23:50:27.175Z,94837.00
2022-12-15T23:52:56.157Z,94838.44
2022-12-15T23:55:23.764Z,94831.75
2022-12-15T23:57:51.322Z,94834.31
